createdAt,value
2023-03-27T00:01:26.168Z,2.40
2023-03-27T00:02:59.365Z,1.90
2023-03-27T00:04:32.879Z,2.00
2023-03-27T00:06:07.320Z,2.00
2023-03-27T00:07:42.162Z,1.77
2023-03-27T00:09:16.140Z,1.80
2023-03-27T00:10:49.582Z,2.30
2023-03-27T00:12:22.601Z,2.17
2023-03-27T00:13:55.658Z,3.17
2023-03-27T00:15:28.890Z,4.27
2023-03-27T00:17:02.722Z,6.53
2023-03-27T00:18:36.430Z,7.47
2023-03-27T00:20:09.165Z,9.47
2023-03-27T00:21:42.283Z,11.17
2023-03-27T00:23:16.375Z,9.03
2023-03-27T00:24:50.845Z,7.50
2023-03-27T00:26:24.405Z,5.83
2023-03-27T00:27:58.504Z,4.57
2023-03-27T00:29:31.614Z,3.37
2023-03-27T00:31:04.040Z,2.70
2023-03-27T00:32:37.498Z,2.10
2023-03-27T00:34:11.781Z,2.10
2023-03-27T00:35:47.234Z,2.10
2023-03-27T00:37:19.353Z,1.40
2023-03-27T00:38:54.046Z,1.50
2023-03-27T00:40:27.432Z,1.93
2023-03-27T00:42:00.516Z,1.90
2023-03-27T00:43:35.617Z,1.43
2023-03-27T00:45:17.052Z,1.70
2023-03-27T00:46:49.542Z,1.40
2023-03-27T00:48:23.600Z,1.27
2023-03-27T00:49:56.989Z,1.60
2023-03-27T00:51:31.847Z,1.80
2023-03-27T00:53:09.106Z,1.20
2023-03-27T00:54:44.102Z,1.30
2023-03-27T00:56:18.007Z,1.60
2023-03-27T00:57:55.459Z,1.50
2023-03-27T00:59:32.106Z,1.77
2023-03-27T01:01:05.460Z,1.70
2023-03-27T01:02:38.809Z,1.83
2023-03-27T01:04:12.147Z,2.00
2023-03-27T01:05:44.625Z,2.70
2023-03-27T01:07:17.703Z,3.20
2023-03-27T01:08:51.707Z,4.10
2023-03-27T01:10:36.823Z,5.90
2023-03-27T01:12:21.088Z,6.10
2023-03-27T01:14:13.183Z,6.87
2023-03-27T01:15:52.990Z,7.33
2023-03-27T01:17:39.220Z,7.40
2023-03-27T01:19:46.415Z,7.60
2023-03-27T01:21:55.890Z,7.83
2023-03-27T01:23:58.919Z,7.70
2023-03-27T01:26:09.709Z,7.27
2023-03-27T01:28:14.220Z,6.70
2023-03-27T01:30:15.305Z,6.00
2023-03-27T01:32:11.112Z,6.40
2023-03-27T01:34:11.130Z,6.80
2023-03-27T01:36:01.114Z,4.30
2023-03-27T01:37:55.452Z,4.83
2023-03-27T01:39:46.343Z,4.70
2023-03-27T01:41:24.529Z,4.50
2023-03-27T01:43:03.433Z,4.13
2023-03-27T01:44:45.557Z,3.87
2023-03-27T01:46:26.256Z,3.00
2023-03-27T01:48:05.813Z,3.20
2023-03-27T01:49:41.552Z,3.80
2023-03-27T01:51:21.274Z,3.20
2023-03-27T01:52:59.714Z,3.57
2023-03-27T01:54:35.244Z,4.30
2023-03-27T01:56:18.357Z,3.70
2023-03-27T01:58:00.769Z,3.17
2023-03-27T01:59:38.642Z,3.30
2023-03-27T02:01:12.459Z,2.93
2023-03-27T02:02:49.300Z,3.33
2023-03-27T02:04:27.523Z,3.63
2023-03-27T02:06:04.348Z,3.50
2023-03-27T02:07:41.801Z,3.60
2023-03-27T02:09:21.974Z,3.47
2023-03-27T02:10:59.215Z,3.60
2023-03-27T02:12:39.258Z,3.67
2023-03-27T02:14:15.772Z,3.80
2023-03-27T02:15:51.451Z,4.10
2023-03-27T02:17:26.369Z,4.00
2023-03-27T02:19:04.251Z,3.80
2023-03-27T02:20:41.010Z,3.77
2023-03-27T02:22:14.345Z,3.73
2023-03-27T02:23:54.089Z,3.53
2023-03-27T02:25:29.337Z,4.07
2023-03-27T02:27:12.842Z,3.60
2023-03-27T02:29:01.624Z,3.90
2023-03-27T02:30:39.671Z,4.23
2023-03-27T02:32:28.561Z,4.13
2023-03-27T02:34:23.847Z,4.57
2023-03-27T02:36:05.317Z,4.60
2023-03-27T02:37:48.050Z,4.73
2023-03-27T02:39:30.475Z,4.40
2023-03-27T02:41:10.530Z,4.13
2023-03-27T02:43:02.279Z,4.80
2023-03-27T02:44:46.533Z,5.50
2023-03-27T02:46:27.337Z,4.67
2023-03-27T02:48:07.812Z,5.10
2023-03-27T02:49:45.417Z,5.03
2023-03-27T02:51:23.848Z,4.90
2023-03-27T02:53:02.174Z,5.20
2023-03-27T02:54:39.301Z,5.10
2023-03-27T02:56:14.867Z,5.13
2023-03-27T02:57:52.594Z,4.70
2023-03-27T02:59:42.460Z,4.70
2023-03-27T03:01:17.724Z,4.53
2023-03-27T03:03:10.297Z,5.20
2023-03-27T03:04:47.866Z,5.23
2023-03-27T03:06:30.808Z,5.50
2023-03-27T03:08:05.421Z,5.07
2023-03-27T03:09:40.343Z,5.17
2023-03-27T03:11:15.832Z,5.07
2023-03-27T03:12:48.952Z,5.03
2023-03-27T03:14:25.564Z,5.83
2023-03-27T03:16:00.078Z,6.10
2023-03-27T03:17:33.199Z,6.43
2023-03-27T03:19:06.321Z,6.33
2023-03-27T03:20:39.850Z,5.97
2023-03-27T03:22:13.162Z,6.37
2023-03-27T03:23:57.993Z,6.20
2023-03-27T03:25:33.019Z,6.40
2023-03-27T03:27:06.999Z,6.00
2023-03-27T03:28:59.891Z,5.73
2023-03-27T03:30:38.853Z,5.70
2023-03-27T03:32:18.070Z,6.60
2023-03-27T03:33:52.192Z,6.53
2023-03-27T03:35:26.138Z,6.63
2023-03-27T03:36:59.899Z,6.20
2023-03-27T03:38:37.790Z,6.77
2023-03-27T03:40:14.610Z,7.20
2023-03-27T03:41:52.190Z,6.93
2023-03-27T03:43:26.498Z,6.87
2023-03-27T03:45:00.660Z,7.87
2023-03-27T03:46:33.915Z,6.83
2023-03-27T03:48:07.562Z,7.13
2023-03-27T03:49:40.864Z,6.77
2023-03-27T03:51:13.958Z,7.20
2023-03-27T03:52:47.298Z,6.67
2023-03-27T03:54:20.537Z,6.83
2023-03-27T03:55:54.251Z,7.60
2023-03-27T03:57:28.040Z,6.97
2023-03-27T03:59:16.442Z,6.67
2023-03-27T04:01:12.654Z,6.80
2023-03-27T04:02:53.342Z,7.00
2023-03-27T04:04:27.911Z,6.40
2023-03-27T04:06:10.871Z,7.07
2023-03-27T04:07:45.642Z,6.70
2023-03-27T04:09:30.859Z,7.17
2023-03-27T04:11:14.029Z,6.93
2023-03-27T04:13:06.382Z,6.80
2023-03-27T04:14:42.856Z,6.43
2023-03-27T04:16:36.077Z,7.53
2023-03-27T04:18:19.570Z,8.03
2023-03-27T04:19:55.196Z,6.70
2023-03-27T04:21:28.268Z,6.93
2023-03-27T04:23:02.527Z,8.07
2023-03-27T04:24:37.239Z,7.77
2023-03-27T04:26:12.290Z,7.17
2023-03-27T04:28:06.176Z,6.77
2023-03-27T04:29:49.055Z,5.97
2023-03-27T04:31:40.711Z,6.17
2023-03-27T04:33:34.342Z,6.83
2023-03-27T04:35:27.278Z,7.03
2023-03-27T04:37:12.890Z,7.77
2023-03-27T04:38:52.209Z,7.30
2023-03-27T04:40:25.849Z,8.60
2023-03-27T04:41:58.338Z,7.87
2023-03-27T04:43:36.621Z,8.07
2023-03-27T04:45:12.421Z,7.97
2023-03-27T04:46:48.738Z,7.77
2023-03-27T04:48:22.885Z,8.47
2023-03-27T04:50:00.967Z,7.37
2023-03-27T04:51:35.951Z,8.20
2023-03-27T04:53:09.101Z,7.53
2023-03-27T04:54:46.769Z,8.03
2023-03-27T04:56:19.907Z,8.30
2023-03-27T04:57:53.078Z,8.00
2023-03-27T04:59:26.466Z,7.93
2023-03-27T05:01:19.492Z,8.43
2023-03-27T05:02:54.628Z,8.93
2023-03-27T05:04:41.241Z,8.60
2023-03-27T05:06:19.322Z,8.77
2023-03-27T05:07:54.725Z,8.70
2023-03-27T05:09:30.339Z,9.60
2023-03-27T05:11:03.668Z,10.27
2023-03-27T05:12:46.588Z,8.67
2023-03-27T05:14:22.881Z,9.03
2023-03-27T05:15:59.186Z,8.53
2023-03-27T05:17:33.862Z,8.80
2023-03-27T05:19:06.018Z,9.00
2023-03-27T05:20:50.337Z,8.43
2023-03-27T05:22:23.538Z,8.20
2023-03-27T05:24:05.297Z,8.13
2023-03-27T05:25:39.454Z,8.23
2023-03-27T05:27:17.449Z,7.70
2023-03-27T05:28:55.670Z,6.97
2023-03-27T05:30:30.016Z,5.30
2023-03-27T05:32:23.428Z,4.83
2023-03-27T05:34:05.640Z,4.37
2023-03-27T05:35:41.956Z,3.97
2023-03-27T05:37:16.460Z,4.33
2023-03-27T05:39:22.031Z,4.27
2023-03-27T05:40:56.439Z,3.80
2023-03-27T05:42:30.375Z,4.17
2023-03-27T05:44:03.845Z,3.90
2023-03-27T05:45:41.478Z,3.80
2023-03-27T05:47:15.287Z,3.80
2023-03-27T05:48:48.409Z,3.93
2023-03-27T05:50:23.739Z,3.67
2023-03-27T05:51:58.215Z,4.13
2023-03-27T05:53:31.628Z,3.93
2023-03-27T05:55:19.495Z,3.73
2023-03-27T05:56:52.599Z,4.33
2023-03-27T05:58:25.882Z,3.53
2023-03-27T06:00:00.363Z,3.57
2023-03-27T06:01:35.043Z,3.50
2023-03-27T06:03:09.817Z,3.73
2023-03-27T06:05:12.935Z,3.60
2023-03-27T06:06:47.922Z,3.40
2023-03-27T06:08:21.077Z,3.80
2023-03-27T06:09:55.111Z,3.00
2023-03-27T06:11:48.393Z,3.23
2023-03-27T06:13:21.687Z,3.00
2023-03-27T06:15:02.171Z,3.73
2023-03-27T06:16:53.096Z,3.37
2023-03-27T06:19:04.594Z,3.63
2023-03-27T06:20:39.004Z,4.00
2023-03-27T06:22:12.661Z,3.20
2023-03-27T06:23:46.463Z,3.87
2023-03-27T06:25:23.954Z,3.80
2023-03-27T06:26:58.914Z,4.00
2023-03-27T06:28:35.221Z,3.93
2023-03-27T06:30:11.137Z,4.50
2023-03-27T06:31:45.641Z,4.20
2023-03-27T06:33:25.625Z,4.23
2023-03-27T06:34:58.778Z,4.30
2023-03-27T06:37:02.731Z,4.27
2023-03-27T06:38:42.039Z,3.30
2023-03-27T06:40:22.733Z,3.63
2023-03-27T06:41:58.061Z,3.83
2023-03-27T06:43:31.170Z,3.50
2023-03-27T06:45:11.111Z,3.83
2023-03-27T06:47:06.878Z,3.97
2023-03-27T06:48:45.564Z,3.37
2023-03-27T06:50:19.679Z,3.80
2023-03-27T06:51:53.404Z,3.47
2023-03-27T06:53:28.837Z,3.53
2023-03-27T06:55:04.138Z,3.60
2023-03-27T06:56:38.553Z,4.10
2023-03-27T06:58:38.972Z,4.03
2023-03-27T07:00:19.120Z,3.47
2023-03-27T07:02:12.348Z,3.97
2023-03-27T07:04:04.156Z,4.20
2023-03-27T07:06:03.658Z,4.00
2023-03-27T07:08:03.149Z,3.57
2023-03-27T07:09:47.334Z,3.30
2023-03-27T07:11:23.118Z,3.13
2023-03-27T07:13:05.862Z,2.90
2023-03-27T07:14:40.619Z,2.50
2023-03-27T07:16:14.028Z,2.43
2023-03-27T07:17:54.225Z,2.00
2023-03-27T07:19:28.416Z,2.00
2023-03-27T07:21:13.006Z,2.33
2023-03-27T07:22:46.152Z,2.23
2023-03-27T07:24:31.117Z,2.23
2023-03-27T07:26:04.587Z,2.07
2023-03-27T07:27:59.814Z,2.50
2023-03-27T07:29:33.153Z,1.87
2023-03-27T07:31:25.943Z,1.80
2023-03-27T07:33:04.630Z,1.80
2023-03-27T07:34:38.733Z,1.80
2023-03-27T07:36:17.779Z,1.60
2023-03-27T07:38:04.045Z,1.77
2023-03-27T07:39:42.990Z,1.60
2023-03-27T07:41:16.482Z,1.40
2023-03-27T07:42:58.616Z,1.30
2023-03-27T07:44:31.881Z,1.30
2023-03-27T07:46:13.802Z,1.27
2023-03-27T07:47:47.521Z,1.10
2023-03-27T07:49:20.956Z,1.40
2023-03-27T07:51:14.482Z,1.10
2023-03-27T07:52:49.657Z,1.00
2023-03-27T07:54:24.446Z,1.20
2023-03-27T07:56:00.661Z,1.30
2023-03-27T07:57:42.403Z,1.33
2023-03-27T07:59:23.624Z,1.87
2023-03-27T08:01:02.489Z,1.10
2023-03-27T08:02:39.798Z,1.20
2023-03-27T08:04:13.087Z,1.20
2023-03-27T08:05:55.186Z,1.30
2023-03-27T08:07:30.287Z,1.43
2023-03-27T08:09:05.600Z,1.30
2023-03-27T08:10:39.026Z,1.37
2023-03-27T08:12:13.494Z,1.57
2023-03-27T08:13:49.687Z,1.50
2023-03-27T08:15:24.891Z,1.67
2023-03-27T08:17:08.913Z,1.33
2023-03-27T08:18:50.691Z,1.57
2023-03-27T08:20:24.695Z,1.47
2023-03-27T08:21:57.847Z,2.00
2023-03-27T08:23:32.701Z,1.70
2023-03-27T08:25:14.590Z,1.70
2023-03-27T08:26:47.950Z,1.60
2023-03-27T08:28:21.322Z,1.60
2023-03-27T08:29:54.464Z,2.10
2023-03-27T08:31:30.684Z,1.90
2023-03-27T08:33:09.716Z,1.80
2023-03-27T08:34:44.241Z,2.13
2023-03-27T08:36:19.988Z,2.10
2023-03-27T08:37:54.059Z,1.87
2023-03-27T08:39:49.999Z,1.90
2023-03-27T08:41:30.513Z,1.60
2023-03-27T08:43:27.365Z,1.43
2023-03-27T08:45:10.454Z,1.83
2023-03-27T08:46:54.620Z,1.53
2023-03-27T08:48:33.536Z,1.53
2023-03-27T08:50:18.971Z,1.40
2023-03-27T08:51:59.279Z,1.30
2023-03-27T08:53:40.412Z,2.17
2023-03-27T08:55:19.678Z,5.07
2023-03-27T08:56:59.236Z,7.23
2023-03-27T08:58:34.491Z,2.97
2023-03-27T09:00:43.406Z,6.83
2023-03-27T09:02:37.909Z,1.63
2023-03-27T09:04:20.027Z,1.37
2023-03-27T09:06:00.380Z,1.53
2023-03-27T09:07:38.872Z,1.43
2023-03-27T09:09:37.165Z,1.43
2023-03-27T09:11:27.719Z,1.57
2023-03-27T09:13:11.595Z,1.40
2023-03-27T09:14:49.687Z,1.30
2023-03-27T09:16:28.976Z,1.30
2023-03-27T09:18:10.545Z,1.40
2023-03-27T09:19:49.493Z,1.30
2023-03-27T09:21:36.670Z,1.60
2023-03-27T09:23:21.230Z,1.40
2023-03-27T09:25:21.358Z,1.40
2023-03-27T09:27:19.225Z,1.57
2023-03-27T09:29:20.138Z,1.50
2023-03-27T09:30:57.315Z,1.63
2023-03-27T09:32:35.842Z,1.60
2023-03-27T09:34:12.715Z,1.77
2023-03-27T09:35:45.876Z,1.60
2023-03-27T09:37:22.017Z,1.60
2023-03-27T09:39:04.708Z,1.33
2023-03-27T09:40:47.473Z,1.57
2023-03-27T09:42:26.261Z,1.90
2023-03-27T09:44:04.643Z,2.07
2023-03-27T09:45:41.566Z,2.00
2023-03-27T09:47:17.379Z,2.03
2023-03-27T09:48:59.062Z,2.70
2023-03-27T09:50:36.048Z,2.10
2023-03-27T09:52:37.012Z,1.73
2023-03-27T09:54:59.716Z,2.00
2023-03-27T09:56:43.118Z,1.90
2023-03-27T09:58:30.591Z,1.83
2023-03-27T10:00:15.448Z,1.47
2023-03-27T10:01:50.536Z,1.40
2023-03-27T10:03:24.779Z,1.40
2023-03-27T10:05:11.933Z,1.57
2023-03-27T10:06:47.541Z,1.40
2023-03-27T10:08:37.683Z,1.37
2023-03-27T10:10:17.571Z,1.50
2023-03-27T10:12:17.833Z,1.30
2023-03-27T10:13:53.925Z,1.63
2023-03-27T10:15:35.586Z,1.50
2023-03-27T10:17:16.026Z,1.80
2023-03-27T10:18:51.495Z,1.60
2023-03-27T10:20:26.465Z,1.43
2023-03-27T10:22:03.947Z,1.67
2023-03-27T10:23:44.394Z,1.70
2023-03-27T10:25:30.938Z,1.70
2023-03-27T10:27:28.752Z,1.60
2023-03-27T10:29:34.858Z,1.60
2023-03-27T10:31:11.312Z,2.20
2023-03-27T10:32:57.994Z,2.10
2023-03-27T10:34:58.892Z,2.70
2023-03-27T10:36:40.706Z,2.10
2023-03-27T10:38:23.249Z,2.20
2023-03-27T10:40:17.330Z,2.20
2023-03-27T10:41:51.896Z,2.30
2023-03-27T10:43:31.451Z,2.30
2023-03-27T10:45:05.676Z,1.83
2023-03-27T10:46:41.110Z,1.70
2023-03-27T10:48:37.295Z,1.50
2023-03-27T10:50:14.451Z,1.97
2023-03-27T10:51:52.754Z,1.60
2023-03-27T10:53:37.506Z,2.00
2023-03-27T10:55:28.855Z,1.63
2023-03-27T10:57:06.245Z,2.13
2023-03-27T10:58:46.152Z,1.57
2023-03-27T11:00:32.507Z,1.70
2023-03-27T11:02:16.857Z,1.43
2023-03-27T11:03:54.821Z,1.40
2023-03-27T11:05:34.417Z,1.40
2023-03-27T11:07:20.854Z,1.30
2023-03-27T11:09:05.561Z,1.57
2023-03-27T11:10:46.107Z,1.90
2023-03-27T11:12:28.835Z,1.50
2023-03-27T11:14:08.091Z,1.70
2023-03-27T11:15:46.031Z,1.20
2023-03-27T11:17:45.079Z,1.13
2023-03-27T11:19:42.955Z,1.20
2023-03-27T11:21:46.597Z,1.57
2023-03-27T11:23:32.143Z,1.37
2023-03-27T11:25:36.448Z,1.20
2023-03-27T11:27:16.225Z,1.10
2023-03-27T11:28:55.284Z,1.30
2023-03-27T11:30:37.644Z,1.27
2023-03-27T11:32:19.347Z,1.43
2023-03-27T11:34:06.186Z,1.80
2023-03-27T11:35:48.560Z,1.40
2023-03-27T11:37:52.688Z,1.63
2023-03-27T11:39:33.188Z,1.90
2023-03-27T11:41:08.104Z,1.67
2023-03-27T11:42:45.022Z,1.70
2023-03-27T11:44:18.926Z,1.47
2023-03-27T11:46:27.463Z,1.43
2023-03-27T11:48:29.940Z,1.90
2023-03-27T11:50:22.382Z,1.30
2023-03-27T11:52:06.971Z,1.60
2023-03-27T11:54:06.452Z,1.33
2023-03-27T11:56:16.250Z,1.57
2023-03-27T11:58:12.491Z,1.10
2023-03-27T12:00:17.751Z,1.50
2023-03-27T12:01:59.249Z,1.60
2023-03-27T12:03:52.800Z,1.30
2023-03-27T12:05:44.108Z,1.63
2023-03-27T12:07:36.495Z,1.30
2023-03-27T12:09:33.021Z,1.30
2023-03-27T12:11:31.272Z,1.73
2023-03-27T12:13:41.843Z,1.27
2023-03-27T12:15:40.469Z,1.27
2023-03-27T12:17:26.193Z,1.20
2023-03-27T12:19:32.519Z,1.73
2023-03-27T12:21:43.777Z,1.40
2023-03-27T12:23:38.718Z,1.47
2023-03-27T12:26:06.891Z,1.50
2023-03-27T12:28:02.973Z,1.40
2023-03-27T12:30:16.177Z,1.60
2023-03-27T12:32:03.840Z,1.50
2023-03-27T12:33:46.466Z,1.30
2023-03-27T12:35:22.183Z,1.23
2023-03-27T12:36:59.348Z,1.20
2023-03-27T12:38:37.099Z,1.40
2023-03-27T12:40:27.268Z,1.37
2023-03-27T12:42:14.406Z,1.60
2023-03-27T12:43:54.550Z,1.40
2023-03-27T12:45:50.918Z,1.33
2023-03-27T12:47:27.202Z,1.53
2023-03-27T12:49:47.513Z,1.33
2023-03-27T12:51:44.451Z,1.20
2023-03-27T12:53:47.746Z,1.20
2023-03-27T12:55:33.550Z,1.40
2023-03-27T12:57:09.132Z,1.40
2023-03-27T12:58:42.976Z,1.50
2023-03-27T13:00:23.980Z,1.30
2023-03-27T13:02:37.684Z,1.30
2023-03-27T13:04:31.413Z,1.37
2023-03-27T13:06:31.598Z,1.20
2023-03-27T13:08:40.427Z,1.40
2023-03-27T13:10:34.626Z,1.20
2023-03-27T13:12:32.106Z,1.40
2023-03-27T13:14:27.550Z,1.37
2023-03-27T13:16:22.748Z,1.23
2023-03-27T13:18:24.190Z,1.37
2023-03-27T13:20:10.106Z,1.40
2023-03-27T13:21:55.239Z,1.60
2023-03-27T13:23:43.014Z,1.33
2023-03-27T13:25:50.952Z,1.47
2023-03-27T13:27:39.150Z,1.17
2023-03-27T13:29:17.710Z,1.30
2023-03-27T13:30:55.785Z,1.40
2023-03-27T13:35:09.803Z,1.53
2023-03-27T13:36:47.759Z,1.50
2023-03-27T13:38:45.736Z,1.50
2023-03-27T13:40:24.639Z,1.30
2023-03-27T13:42:10.524Z,1.40
2023-03-27T13:43:52.611Z,1.27
2023-03-27T13:45:46.663Z,1.30
2023-03-27T13:48:08.365Z,1.10
2023-03-27T13:50:07.568Z,1.00
2023-03-27T13:52:18.665Z,1.27
2023-03-27T13:54:06.654Z,1.40
2023-03-27T13:56:03.441Z,1.73
2023-03-27T13:58:23.187Z,1.77
2023-03-27T14:00:23.658Z,1.67
2023-03-27T14:02:33.230Z,1.67
2023-03-27T14:04:27.543Z,2.00
2023-03-27T14:06:32.534Z,1.67
2023-03-27T14:08:25.617Z,2.20
2023-03-27T14:10:34.953Z,1.63
2023-03-27T14:12:16.710Z,1.53
2023-03-27T14:14:22.347Z,1.43
2023-03-27T14:16:40.444Z,1.63
2023-03-27T14:18:34.849Z,1.50
2023-03-27T14:20:21.550Z,1.50
2023-03-27T14:21:59.422Z,1.70
2023-03-27T14:23:38.748Z,1.30
2023-03-27T14:25:30.309Z,1.63
2023-03-27T14:27:18.805Z,1.70
2023-03-27T14:28:55.017Z,1.77
2023-03-27T14:30:46.125Z,1.90
2023-03-27T14:32:47.009Z,1.57
2023-03-27T14:34:24.681Z,1.80
2023-03-27T14:36:16.585Z,1.57
2023-03-27T14:37:56.996Z,2.00
2023-03-27T14:39:39.544Z,2.30
2023-03-27T14:41:21.704Z,1.77
2023-03-27T14:43:02.739Z,1.93
2023-03-27T14:44:36.255Z,2.07
2023-03-27T14:46:17.374Z,1.90
2023-03-27T14:47:55.058Z,1.80
2023-03-27T14:49:36.105Z,1.80
2023-03-27T14:51:16.606Z,1.80
2023-03-27T14:52:53.462Z,1.83
2023-03-27T14:54:28.922Z,1.50
2023-03-27T14:56:21.051Z,1.50
2023-03-27T14:58:13.573Z,1.33
2023-03-27T14:59:47.636Z,1.50
2023-03-27T15:01:21.623Z,1.70
2023-03-27T15:03:05.210Z,1.70
2023-03-27T15:04:41.158Z,1.80
2023-03-27T15:06:21.128Z,1.97
2023-03-27T15:07:58.711Z,2.23
2023-03-27T15:10:04.086Z,2.13
2023-03-27T15:12:11.966Z,2.20
2023-03-27T15:13:48.116Z,2.07
2023-03-27T15:15:38.924Z,2.20
2023-03-27T15:17:15.862Z,1.97
2023-03-27T15:19:00.333Z,2.20
2023-03-27T15:20:37.291Z,1.90
2023-03-27T15:22:15.728Z,2.00
2023-03-27T15:24:00.940Z,2.17
2023-03-27T15:25:43.763Z,2.47
2023-03-27T15:27:21.424Z,1.77
2023-03-27T15:29:04.064Z,2.47
2023-03-27T15:30:40.990Z,2.03
2023-03-27T15:32:18.843Z,2.50
2023-03-27T15:33:56.980Z,2.60
2023-03-27T15:35:33.556Z,2.03
2023-03-27T15:37:13.743Z,2.80
2023-03-27T15:38:46.871Z,2.70
2023-03-27T15:40:40.225Z,2.27
2023-03-27T15:42:16.188Z,1.77
2023-03-27T15:43:53.174Z,1.40
2023-03-27T15:45:38.197Z,1.23
2023-03-27T15:47:25.573Z,1.30
2023-03-27T15:48:58.661Z,1.43
2023-03-27T15:50:31.989Z,1.50
2023-03-27T15:52:29.351Z,1.37
2023-03-27T15:54:40.604Z,1.40
2023-03-27T15:56:22.592Z,1.60
2023-03-27T15:57:55.752Z,1.73
2023-03-27T15:59:33.482Z,1.30
2023-03-27T16:01:18.381Z,1.63
2023-03-27T16:02:52.962Z,1.50
2023-03-27T16:04:28.684Z,1.77
2023-03-27T16:06:02.961Z,1.70
2023-03-27T16:07:46.451Z,1.93
2023-03-27T16:09:24.967Z,1.57
2023-03-27T16:10:58.909Z,1.47
2023-03-27T16:12:35.133Z,1.40
2023-03-27T16:14:20.639Z,1.50
2023-03-27T16:16:01.086Z,1.57
2023-03-27T16:17:40.439Z,1.43
2023-03-27T16:19:15.501Z,1.40
2023-03-27T16:20:49.052Z,1.30
2023-03-27T16:22:24.532Z,1.20
2023-03-27T16:23:57.619Z,1.50
2023-03-27T16:25:30.840Z,1.70
2023-03-27T16:27:04.131Z,1.50
2023-03-27T16:28:37.391Z,1.50
2023-03-27T16:30:22.327Z,1.50
2023-03-27T16:31:57.469Z,1.80
2023-03-27T16:33:30.743Z,1.70
2023-03-27T16:35:03.882Z,1.90
2023-03-27T16:36:37.593Z,2.20
2023-03-27T16:38:10.824Z,2.30
2023-03-27T16:39:44.173Z,2.73
2023-03-27T16:41:19.055Z,2.10
2023-03-27T16:42:52.147Z,2.50
2023-03-27T16:44:25.388Z,2.53
2023-03-27T16:45:58.672Z,2.50
2023-03-27T16:47:33.491Z,2.37
2023-03-27T16:49:06.845Z,1.90
2023-03-27T16:50:39.974Z,2.27
2023-03-27T16:52:13.232Z,2.07
2023-03-27T16:53:46.333Z,2.00
2023-03-27T16:55:19.540Z,2.30
2023-03-27T16:56:53.114Z,2.73
2023-03-27T16:58:27.111Z,2.50
2023-03-27T17:00:00.356Z,2.53
2023-03-27T17:01:33.532Z,2.57
2023-03-27T17:03:08.026Z,2.30
2023-03-27T17:04:43.753Z,2.60
2023-03-27T17:06:19.036Z,2.70
2023-03-27T17:07:52.436Z,2.20
2023-03-27T17:09:25.801Z,2.80
2023-03-27T17:11:03.696Z,2.40
2023-03-27T17:12:36.911Z,3.10
2023-03-27T17:14:10.056Z,3.60
2023-03-27T17:15:43.116Z,4.10
2023-03-27T17:17:16.362Z,4.00
2023-03-27T17:18:51.798Z,5.47
2023-03-27T17:20:24.918Z,4.83
2023-03-27T17:21:57.987Z,3.80
2023-03-27T17:23:31.537Z,3.40
2023-03-27T17:25:06.026Z,3.80
2023-03-27T17:26:39.525Z,2.90
2023-03-27T17:28:13.352Z,2.10
2023-03-27T17:29:46.386Z,2.57
2023-03-27T17:31:20.026Z,2.40
2023-03-27T17:32:53.466Z,2.37
2023-03-27T17:34:28.711Z,2.40
2023-03-27T17:36:02.114Z,2.30
2023-03-27T17:37:36.643Z,2.60
2023-03-27T17:39:10.732Z,2.30
2023-03-27T17:40:43.906Z,2.30
2023-03-27T17:42:17.120Z,2.30
2023-03-27T17:43:50.568Z,1.77
2023-03-27T17:45:23.910Z,1.50
2023-03-27T17:46:57.119Z,1.77
2023-03-27T17:48:33.087Z,1.60
2023-03-27T17:50:08.960Z,1.57
2023-03-27T17:51:42.164Z,1.60
2023-03-27T17:53:15.303Z,1.70
2023-03-27T17:54:49.744Z,1.60
2023-03-27T17:56:22.886Z,1.70
2023-03-27T17:58:07.877Z,2.10
2023-03-27T17:59:42.331Z,1.70
2023-03-27T18:01:18.898Z,2.10
2023-03-27T18:02:52.600Z,1.77
2023-03-27T18:04:28.386Z,1.63
2023-03-27T18:06:05.890Z,1.57
2023-03-27T18:07:39.000Z,1.98
2023-03-27T18:09:12.069Z,2.17
2023-03-27T18:10:48.382Z,2.50
2023-03-27T18:12:22.135Z,2.75
2023-03-27T18:13:55.178Z,2.80
2023-03-27T18:15:28.354Z,3.00
2023-03-27T18:17:03.903Z,3.03
2023-03-27T18:18:37.420Z,2.58
2023-03-27T18:20:11.288Z,3.47
2023-03-27T18:21:45.876Z,4.40
2023-03-27T18:23:19.238Z,4.53
2023-03-27T18:24:52.341Z,5.73
2023-03-27T18:26:25.392Z,4.93
2023-03-27T18:27:58.664Z,4.70
2023-03-27T18:29:33.693Z,5.23
2023-03-27T18:31:09.169Z,5.20
2023-03-27T18:32:43.569Z,5.68
2023-03-27T18:34:16.753Z,5.00
2023-03-27T18:35:54.662Z,4.93
2023-03-27T18:37:29.288Z,5.37
2023-03-27T18:39:02.951Z,4.17
2023-03-27T18:40:36.069Z,4.18
2023-03-27T18:42:09.634Z,3.80
2023-03-27T18:43:42.725Z,4.07
2023-03-27T18:45:17.764Z,4.87
2023-03-27T18:46:50.829Z,4.50
2023-03-27T18:48:24.047Z,4.50
2023-03-27T18:49:57.526Z,4.87
2023-03-27T18:51:31.549Z,4.77
2023-03-27T18:53:06.744Z,5.10
2023-03-27T18:54:39.871Z,4.43
2023-03-27T18:56:13.511Z,4.73
2023-03-27T18:57:46.622Z,5.20
2023-03-27T18:59:19.674Z,4.93
2023-03-27T19:00:52.967Z,5.05
2023-03-27T19:02:26.107Z,4.70
2023-03-27T19:03:59.246Z,4.67
2023-03-27T19:05:32.331Z,4.77
2023-03-27T19:07:07.629Z,4.73
2023-03-27T19:08:45.927Z,4.83
2023-03-27T19:10:19.173Z,4.47
2023-03-27T19:12:11.880Z,4.65
2023-03-27T19:14:12.905Z,4.70
2023-03-27T19:16:21.472Z,4.68
2023-03-27T19:18:18.085Z,4.68
2023-03-27T19:20:13.732Z,4.40
2023-03-27T19:21:56.980Z,4.90
2023-03-27T19:23:43.422Z,4.53
2023-03-27T19:25:17.962Z,4.93
2023-03-27T19:26:52.670Z,5.17
2023-03-27T19:28:26.132Z,5.32
2023-03-27T19:29:59.522Z,5.30
2023-03-27T19:31:32.885Z,5.15
2023-03-27T19:33:06.564Z,5.05
2023-03-27T19:34:42.823Z,7.00
2023-03-27T19:36:17.134Z,8.32
2023-03-27T19:37:50.503Z,8.60
2023-03-27T19:39:28.405Z,7.57
2023-03-27T19:41:02.198Z,7.47
2023-03-27T19:42:38.617Z,6.85
2023-03-27T19:44:14.062Z,5.90
2023-03-27T19:46:04.450Z,6.18
2023-03-27T19:47:47.168Z,5.07
2023-03-27T19:49:20.922Z,4.18
2023-03-27T19:50:58.994Z,4.45
2023-03-27T19:52:39.511Z,3.70
2023-03-27T19:54:13.972Z,4.38
2023-03-27T19:55:48.733Z,4.80
2023-03-27T19:57:22.282Z,3.97
2023-03-27T19:58:56.143Z,4.13
2023-03-27T20:00:31.528Z,3.88
2023-03-27T20:02:05.130Z,4.00
2023-03-27T20:03:39.937Z,3.95
2023-03-27T20:05:13.450Z,3.83
2023-03-27T20:06:48.679Z,3.70
2023-03-27T20:08:22.574Z,4.10
2023-03-27T20:09:56.154Z,3.95
2023-03-27T20:11:30.897Z,3.63
2023-03-27T20:13:04.303Z,4.07
2023-03-27T20:14:39.457Z,3.92
2023-03-27T20:16:14.895Z,3.90
2023-03-27T20:17:51.872Z,3.67
2023-03-27T20:19:26.934Z,4.10
2023-03-27T20:21:03.143Z,4.18
2023-03-27T20:22:43.415Z,4.20
2023-03-27T20:24:28.849Z,4.30
2023-03-27T20:26:05.690Z,4.07
2023-03-27T20:27:43.779Z,4.30
2023-03-27T20:29:18.402Z,4.40
2023-03-27T20:30:52.269Z,4.00
2023-03-27T20:32:25.666Z,3.70
2023-03-27T20:33:59.222Z,3.72
2023-03-27T20:35:33.191Z,3.88
2023-03-27T20:37:11.766Z,3.42
2023-03-27T20:38:53.988Z,3.42
2023-03-27T20:40:27.394Z,3.37
2023-03-27T20:42:00.906Z,3.08
2023-03-27T20:43:38.990Z,2.90
2023-03-27T20:45:16.415Z,2.97
2023-03-27T20:46:51.212Z,3.00
2023-03-27T20:48:25.168Z,2.83
2023-03-27T20:49:59.016Z,2.63
2023-03-27T20:51:32.466Z,2.47
2023-03-27T20:53:06.056Z,3.10
2023-03-27T20:54:39.701Z,2.57
2023-03-27T20:56:15.452Z,2.30
2023-03-27T20:57:48.829Z,2.10
2023-03-27T20:59:23.583Z,2.23
2023-03-27T21:00:56.203Z,2.30
2023-03-27T21:02:29.820Z,2.23
2023-03-27T21:04:03.299Z,2.30
2023-03-27T21:05:38.330Z,1.90
2023-03-27T21:07:11.864Z,1.70
2023-03-27T21:08:45.352Z,1.77
2023-03-27T21:10:19.410Z,2.10
2023-03-27T21:11:53.475Z,2.03
2023-03-27T21:13:26.005Z,2.20
2023-03-27T21:15:00.739Z,2.10
2023-03-27T21:16:34.278Z,1.80
2023-03-27T21:18:07.740Z,2.23
2023-03-27T21:19:41.142Z,2.27
2023-03-27T21:21:14.643Z,2.00
2023-03-27T21:22:52.616Z,1.90
2023-03-27T21:24:26.153Z,2.28
2023-03-27T21:25:59.891Z,2.30
2023-03-27T21:27:33.435Z,2.30
2023-03-27T21:29:10.528Z,2.40
2023-03-27T21:30:46.718Z,2.40
2023-03-27T21:32:21.535Z,2.35
2023-03-27T21:33:54.884Z,2.60
2023-03-27T21:35:28.289Z,2.90
2023-03-27T21:37:02.705Z,2.70
2023-03-27T21:38:35.288Z,2.50
2023-03-27T21:40:09.356Z,3.10
2023-03-27T21:41:42.873Z,2.80
2023-03-27T21:43:16.398Z,2.83
2023-03-27T21:44:53.616Z,3.00
2023-03-27T21:46:30.716Z,2.97
2023-03-27T21:48:04.261Z,2.90
2023-03-27T21:49:37.668Z,2.87
2023-03-27T21:51:11.163Z,2.70
2023-03-27T21:52:44.672Z,2.60
2023-03-27T21:54:18.049Z,2.77
2023-03-27T21:55:51.419Z,2.90
2023-03-27T21:57:26.260Z,2.97
2023-03-27T21:58:59.777Z,2.63
2023-03-27T22:00:32.356Z,2.73
2023-03-27T22:02:07.090Z,2.33
2023-03-27T22:03:40.659Z,2.70
2023-03-27T22:05:14.051Z,2.43
2023-03-27T22:06:47.673Z,2.40
2023-03-27T22:08:21.596Z,2.63
2023-03-27T22:09:55.066Z,2.30
2023-03-27T22:11:28.406Z,2.30
2023-03-27T22:13:02.584Z,2.70
2023-03-27T22:14:36.135Z,2.40
2023-03-27T22:16:10.834Z,2.20
2023-03-27T22:17:46.403Z,2.50
2023-03-27T22:19:20.090Z,2.37
2023-03-27T22:20:53.688Z,2.30
2023-03-27T22:22:26.097Z,2.20